Time;durP1;ratioP1;P1;durP2;ratioP2;P2;SDS_P1;SDS_P2;PMS_P1;PMS_P2;Temp;Humidity;BMP_temperature;BMP_pressure;BME280_temperature;BME280_humidity;BME280_pressure;Samples;Min_cycle;Max_cycle;Signal;HPM_P1;HPM_P2
2021/04/14 00:00:50;;;;;;;49.98;34.65;;;;;;;10.86;72.44;99351.16;1790744;78;21354;-45
2021/04/14 00:03:24;;;;;;;53.17;36.50;;;;;;;10.92;72.23;99344.86;1774586;79;21139;-44
2021/04/14 00:05:53;;;;;;;53.42;35.73;;;;;;;10.97;72.07;99345.92;1800295;78;21174;-44
2021/04/14 00:08:22;;;;;;;46.20;33.63;;;;;;;10.99;71.87;99350.42;1797542;78;21492;-45
2021/04/14 00:10:50;;;;;;;49.93;33.53;;;;;;;10.98;71.72;99346.14;1794084;79;21146;-45
2021/04/14 00:13:26;;;;;;;44.33;32.65;;;;;;;11.04;71.55;99344.66;1800385;79;21445;-44
2021/04/14 00:15:56;;;;;;;51.20;34.27;;;;;;;11.12;71.30;99343.66;1800149;78;21080;-45
2021/04/14 00:18:26;;;;;;;49.35;35.13;;;;;;;11.13;71.13;99349.30;1733537;81;21612;-45
2021/04/14 00:20:56;;;;;;;49.40;35.30;;;;;;;11.13;71.07;99353.37;1761460;80;21033;-44
2021/04/14 00:23:24;;;;;;;46.85;32.70;;;;;;;11.12;70.88;99353.94;1743038;81;21206;-44
2021/04/14 00:25:54;;;;;;;47.00;31.27;;;;;;;11.09;70.77;99349.22;1759219;79;21019;-45
2021/04/14 00:28:26;;;;;;;45.80;32.58;;;;;;;11.10;70.68;99348.66;1740533;79;21198;-45
2021/04/14 00:30:54;;;;;;;48.87;33.40;;;;;;;11.14;70.54;99346.20;1750365;79;21170;-45
2021/04/14 00:33:22;;;;;;;52.17;34.75;;;;;;;11.15;70.40;99344.28;1723524;80;21160;-45
2021/04/14 00:35:51;;;;;;;47.88;33.85;;;;;;;11.14;70.32;99350.84;1745289;80;21188;-45
2021/04/14 00:38:22;;;;;;;42.83;32.10;;;;;;;11.13;70.22;99344.66;1712373;81;25718;-45
2021/04/14 00:41:10;;;;;;;42.20;31.12;;;;;;;11.12;70.05;99343.09;1718417;81;21230;-45
2021/04/14 00:43:39;;;;;;;45.60;31.65;;;;;;;11.10;69.92;99343.23;1799588;78;21217;-44
2021/04/14 00:46:07;;;;;;;41.25;30.17;;;;;;;11.09;69.93;99341.08;1771201;78;21057;-45
2021/04/14 00:48:36;;;;;;;45.50;31.65;;;;;;;11.08;69.76;99337.39;1810539;78;21132;-45
2021/04/14 00:51:06;;;;;;;45.78;31.25;;;;;;;11.05;69.60;99330.75;1787794;78;21049;-44
2021/04/14 00:53:35;;;;;;;43.52;30.82;;;;;;;10.97;69.51;99333.14;1784053;78;21061;-44
2021/04/14 00:56:05;;;;;;;42.98;28.45;;;;;;;10.92;69.78;99338.08;1777814;78;21008;-45
2021/04/14 01:00:35;;;;;;;39.88;28.50;;;;;;;10.93;69.86;99338.30;1809591;79;22607;-44
2021/04/14 01:03:06;;;;;;;40.67;28.77;;;;;;;10.76;70.16;99347.68;1783633;80;21016;-44
2021/04/14 01:05:36;;;;;;;44.73;29.63;;;;;;;10.71;70.45;99341.98;1691272;83;21222;-44
2021/04/14 01:08:06;;;;;;;46.63;29.20;;;;;;;10.68;70.56;99344.07;1745469;81;21000;-43
2021/04/14 01:10:34;;;;;;;36.55;26.93;;;;;;;10.68;70.74;99340.58;1721626;81;21631;-43
2021/04/14 01:13:04;;;;;;;38.70;28.75;;;;;;;10.42;70.64;99284.34;1718807;83;21159;-44
2021/04/14 01:15:39;;;;;;;38.98;27.77;;;;;;;10.65;70.74;99327.75;1674747;84;21068;-44
2021/04/14 01:18:15;;;;;;;40.73;28.12;;;;;;;10.60;70.97;99320.67;1715375;83;21560;-44
2021/04/14 01:20:42;;;;;;;42.45;29.05;;;;;;;10.58;71.04;99324.33;1749770;81;21175;-44
2021/04/14 01:23:11;;;;;;;41.28;29.00;;;;;;;10.57;71.14;99314.63;1726354;81;21695;-43
2021/04/14 01:25:41;;;;;;;43.48;27.93;;;;;;;10.62;71.15;99314.89;1720635;82;21179;-44
2021/04/14 01:28:16;;;;;;;36.85;26.30;;;;;;;10.65;70.82;99316.91;1706175;83;21164;-44
2021/04/14 01:30:45;;;;;;;40.88;27.87;;;;;;;10.67;70.77;99322.16;1755772;81;21215;-44
2021/04/14 01:33:15;;;;;;;;;;;;;;;10.71;70.52;99317.58;1749588;81;21133;-44
2021/04/14 01:35:45;;;;;;;39.33;27.58;;;;;;;10.66;70.61;99319.23;1752032;81;20374;-44
2021/04/14 01:38:13;;;;;;;41.95;27.67;;;;;;;10.55;70.90;99324.27;1753884;81;21428;-43
2021/04/14 01:40:41;;;;;;;38.30;28.42;;;;;;;10.53;70.85;99325.98;1754311;81;21700;-44
2021/04/14 01:43:09;;;;;;;36.55;25.72;;;;;;;10.46;70.96;99330.69;1752716;81;21201;-44
2021/04/14 01:45:41;;;;;;;38.55;26.65;;;;;;;10.42;71.16;99333.12;1752798;81;21098;-43
2021/04/14 01:48:09;;;;;;;36.08;26.75;;;;;;;10.42;71.03;99333.12;1731827;81;21612;-41
2021/04/14 01:50:37;;;;;;;38.73;26.93;;;;;;;10.42;71.11;99324.42;1726312;81;21161;-43
2021/04/14 01:53:09;;;;;;;35.92;27.22;;;;;;;10.41;71.07;99319.34;1737610;81;21043;-42
2021/04/14 01:55:37;;;;;;;;;;;;;;;10.34;71.20;99328.15;1754417;81;21422;-43
2021/04/14 01:58:09;;;;;;;42.62;27.80;;;;;;;10.28;71.38;99319.30;1732827;81;20230;-43
2021/04/14 02:00:56;;;;;;;40.10;26.52;;;;;;;10.15;71.89;99317.86;1713413;82;21028;-43
2021/04/14 02:03:29;;;;;;;37.55;27.25;;;;;;;10.14;72.01;99314.36;1739753;81;21179;-42
2021/04/14 02:05:58;;;;;;;37.35;28.15;;;;;;;10.15;72.09;99313.23;1712021;82;21159;-43
2021/04/14 02:08:26;;;;;;;37.08;28.23;;;;;;;10.13;72.27;99306.59;1719994;82;21190;-43
2021/04/14 02:10:55;;;;;;;40.98;28.05;;;;;;;10.10;72.45;99304.60;1713917;82;21206;-42
2021/04/14 02:13:29;;;;;;;40.85;27.20;;;;;;;10.08;72.58;99309.02;1724910;82;21064;-42
2021/04/14 02:15:57;;;;;;;35.50;26.60;;;;;;;10.10;72.65;99301.89;1732146;81;21174;-42
2021/04/14 02:18:25;;;;;;;36.88;26.15;;;;;;;10.18;72.58;99297.64;1733932;82;21250;-42
2021/04/14 02:20:53;;;;;;;36.60;25.08;;;;;;;10.27;72.40;99293.34;1728527;82;22333;-43
2021/04/14 02:23:32;;;;;;;39.60;27.42;;;;;;;10.31;72.29;99298.28;1723747;82;21159;-43
2021/04/14 02:26:02;;;;;;;36.13;25.92;;;;;;;10.33;72.28;99291.91;1731566;82;21633;-42
2021/04/14 02:28:30;;;;;;;37.63;26.35;;;;;;;10.34;72.21;99286.72;1725795;82;21127;-42
2021/04/14 02:30:58;;;;;;;33.35;24.65;;;;;;;10.40;72.11;99276.59;1710400;83;21214;-42
2021/04/14 02:33:26;;;;;;;35.55;25.75;;;;;;;10.52;71.86;99270.77;1727842;82;21425;-42
2021/04/14 02:35:55;;;;;;;35.40;26.48;;;;;;;10.58;71.54;99272.82;1714523;82;21913;-43
2021/04/14 02:38:24;;;;;;;33.50;26.12;;;;;;;10.58;71.47;99263.34;1716224;82;21036;-43
2021/04/14 02:40:51;;;;;;;38.30;26.33;;;;;;;10.60;71.46;99261.63;1738988;82;21044;-43
2021/04/14 02:43:21;;;;;;;36.58;27.00;;;;;;;10.60;71.29;99262.98;1738912;82;21175;-44
2021/04/14 02:45:49;;;;;;;33.60;25.90;;;;;;;10.57;71.32;99259.05;1720769;81;21214;-44
2021/04/14 02:48:19;;;;;;;34.92;25.37;;;;;;;10.61;71.18;99269.37;1729195;82;21218;-43
2021/04/14 02:50:48;;;;;;;34.83;26.40;;;;;;;10.68;71.01;99270.87;1717988;82;21011;-44
2021/04/14 02:53:17;;;;;;;38.63;26.95;;;;;;;10.73;70.87;99271.14;1725953;82;21573;-44
2021/04/14 02:55:45;;;;;;;35.78;26.75;;;;;;;10.74;70.75;99276.20;1713229;82;21163;-43
2021/04/14 02:58:13;;;;;;;38.17;27.75;;;;;;;10.76;70.55;99281.25;1732842;82;21336;-43
2021/04/14 03:00:41;;;;;;;36.85;25.85;;;;;;;10.76;70.50;99281.25;1738748;82;21052;-44
2021/04/14 03:03:10;;;;;;;32.05;24.05;;;;;;;10.76;70.42;99282.60;1731740;82;21119;-44
2021/04/14 03:05:39;;;;;;;34.23;26.35;;;;;;;10.79;70.35;99281.33;1739803;82;21171;-43
2021/04/14 03:08:07;;;;;;;33.83;26.95;;;;;;;10.81;70.29;99287.16;1737283;82;21629;-43
2021/04/14 03:10:35;;;;;;;40.73;27.82;;;;;;;10.81;70.26;99288.52;1724297;82;21272;-44
2021/04/14 03:13:05;;;;;;;37.90;26.55;;;;;;;10.82;70.20;99286.02;1714868;82;21138;-43
2021/04/14 03:15:38;;;;;;;32.35;24.72;;;;;;;10.80;70.18;99278.80;1710356;83;21198;-44
2021/04/14 03:18:15;;;;;;;31.52;24.85;;;;;;;10.83;70.08;99282.73;1736921;82;21179;-44
2021/04/14 03:20:44;;;;;;;34.85;25.97;;;;;;;10.89;69.98;99279.94;1710473;83;21625;-44
2021/04/14 03:23:14;;;;;;;35.78;26.30;;;;;;;10.89;69.89;99284.76;1738882;82;21376;-43
2021/04/14 03:25:42;;;;;;;37.85;27.15;;;;;;;10.88;69.93;99275.66;1727945;81;21233;-44
2021/04/14 03:28:12;;;;;;;36.10;28.07;;;;;;;10.81;69.93;99278.23;1739939;82;21179;-44
2021/04/14 03:30:41;;;;;;;31.62;24.27;;;;;;;10.70;70.20;99275.34;1716990;82;21163;-42
2021/04/14 03:33:10;;;;;;;32.95;24.50;;;;;;;10.59;70.51;99281.17;1731567;82;21135;-42
2021/04/14 03:35:38;;;;;;;31.52;26.45;;;;;;;10.60;70.72;99269.77;1723004;82;21375;-42
2021/04/14 03:38:05;;;;;;;37.03;27.48;;;;;;;10.61;70.85;99275.38;1731128;82;21159;-42
2021/04/14 03:40:33;;;;;;;29.75;24.70;;;;;;;10.55;71.06;99273.55;1723400;82;21183;-41
2021/04/14 03:43:02;;;;;;;31.75;24.43;;;;;;;10.50;71.31;99276.56;1712357;82;21183;-43
2021/04/14 03:48:15;;;;;;;33.13;25.32;;;;;;;10.50;71.79;99275.78;1809297;78;22701;-43
2021/04/14 03:50:43;;;;;;;31.25;25.95;;;;;;;10.43;71.90;99274.50;1782030;78;21043;-43
2021/04/14 03:53:26;;;;;;;31.50;25.10;;;;;;;10.39;72.09;99275.58;1785470;79;21344;-43
2021/04/14 03:56:06;;;;;;;35.00;24.18;;;;;;;10.34;72.36;99277.23;1750604;80;21071;-43
2021/04/14 03:58:36;;;;;;;32.78;24.45;;;;;;;10.29;72.43;99285.65;1802148;79;21578;-43
2021/04/14 04:01:07;;;;;;;;;;;;;;;10.20;72.76;99281.03;1791435;79;21621;-43
2021/04/14 04:03:35;;;;;;;32.85;22.62;;;;;;;10.09;73.26;99284.06;1785319;79;20691;-43
2021/04/14 04:06:03;;;;;;;29.90;21.05;;;;;;;9.95;73.68;99277.81;1799736;79;21363;-44
2021/04/14 04:08:32;;;;;;;27.98;20.35;;;;;;;9.99;73.79;99276.73;1747399;82;21029;-43
2021/04/14 04:11:00;;;;;;;27.73;20.12;;;;;;;10.04;73.71;99285.93;1751304;80;21048;-43
2021/04/14 04:13:30;;;;;;;27.30;20.23;;;;;;;9.73;73.46;99237.33;1759416;80;21883;-44
2021/04/14 04:15:58;;;;;;;22.45;17.90;;;;;;;10.01;73.31;99285.30;1764781;80;21143;-44
2021/04/14 04:18:27;;;;;;;24.18;17.17;;;;;;;10.05;72.89;99284.00;1744084;81;22289;-43
2021/04/14 04:20:55;;;;;;;23.07;16.73;;;;;;;10.13;72.28;99289.77;1725722;81;21656;-43
2021/04/14 04:23:24;;;;;;;23.92;17.10;;;;;;;10.19;71.87;99285.66;1761109;80;21644;-44
2021/04/14 04:25:53;;;;;;;17.60;13.05;;;;;;;10.24;71.37;99289.44;1774919;80;21157;-44
2021/04/14 04:28:23;;;;;;;21.40;16.57;;;;;;;10.24;70.99;99294.06;1747783;81;21178;-42
2021/04/14 04:30:51;;;;;;;24.90;15.68;;;;;;;10.23;70.63;99294.64;1768526;80;21413;-43
2021/04/14 04:33:20;;;;;;;21.27;15.50;;;;;;;10.26;70.30;99293.91;1746975;80;21628;-42
2021/04/14 04:35:48;;;;;;;22.55;16.20;;;;;;;10.33;70.06;99292.70;1743437;81;21110;-42
2021/04/14 04:38:16;;;;;;;26.05;16.67;;;;;;;10.38;69.92;99299.75;1757883;81;21413;-42
2021/04/14 04:40:45;;;;;;;21.80;16.10;;;;;;;10.41;69.50;99303.09;1766155;80;21180;-43
2021/04/14 04:43:17;;;;;;;22.13;16.90;;;;;;;10.41;69.35;99296.31;1744831;80;20988;-42
2021/04/14 04:45:51;;;;;;;26.27;16.10;;;;;;;10.41;69.08;99295.75;1755085;80;21190;-43
2021/04/14 04:48:21;;;;;;;19.52;14.95;;;;;;;10.45;68.72;99298.54;1730920;82;21198;-44
2021/04/14 04:50:49;;;;;;;21.45;15.75;;;;;;;10.48;68.48;99305.94;1718119;82;21175;-44
2021/04/14 04:53:20;;;;;;;24.02;15.80;;;;;;;10.50;68.37;99298.25;1722476;81;21625;-44
2021/04/14 04:55:49;;;;;;;21.35;14.40;;;;;;;10.50;68.25;99295.53;1786803;79;21475;-43
2021/04/14 04:58:17;;;;;;;23.22;15.83;;;;;;;10.51;67.27;99297.08;1780522;79;21060;-44
2021/04/14 05:00:47;;;;;;;27.00;15.90;;;;;;;10.48;66.95;99301.88;1805358;79;21153;-44
2021/04/14 05:03:16;;;;;;;24.92;15.25;;;;;;;10.49;65.81;99305.38;1791512;79;21425;-43
2021/04/14 05:05:45;;;;;;;24.23;15.38;;;;;;;10.45;65.61;99310.73;1786240;79;21106;-43
2021/04/14 05:08:13;;;;;;;24.32;14.58;;;;;;;10.38;65.87;99305.17;1803826;79;21279;-42
2021/04/14 05:10:42;;;;;;;23.45;14.38;;;;;;;10.36;65.42;99302.05;1791675;79;21178;-42
2021/04/14 05:13:11;;;;;;;25.15;13.20;;;;;;;10.41;65.08;99311.22;1805242;79;21159;-42
2021/04/14 05:15:39;;;;;;;20.32;14.07;;;;;;;10.46;65.15;99305.50;1786622;79;21089;-42
2021/04/14 05:18:08;;;;;;;20.35;13.50;;;;;;;10.46;65.02;99297.38;1765967;81;21174;-42
2021/04/14 05:20:37;;;;;;;21.33;14.10;;;;;;;10.48;64.90;99302.45;1798077;79;21359;-44
2021/04/14 05:23:07;;;;;;;25.25;14.05;;;;;;;10.49;64.93;99298.03;1803886;79;21179;-43
2021/04/14 05:25:38;;;;;;;15.88;9.98;;;;;;;10.53;65.16;99298.88;1798391;79;21055;-42
2021/04/14 05:28:09;;;;;;;18.23;13.78;;;;;;;10.58;64.57;99304.00;1800862;79;21190;-45
2021/04/14 05:30:36;;;;;;;21.97;14.18;;;;;;;10.57;64.03;99306.48;1780162;79;21159;-44
2021/04/14 05:33:07;;;;;;;21.40;14.83;;;;;;;10.58;64.32;99297.22;1782706;79;21348;-44
2021/04/14 05:35:36;;;;;;;21.42;13.50;;;;;;;10.69;64.30;99306.91;1778835;79;22086;-44
2021/04/14 05:38:04;;;;;;;19.95;12.98;;;;;;;10.69;64.30;99306.91;1788713;79;21001;-42
2021/04/14 05:40:33;;;;;;;18.67;12.37;;;;;;;10.78;63.82;99315.01;1786768;79;21098;-44
2021/04/14 05:43:18;;;;;;;20.43;13.50;;;;;;;10.81;63.16;99312.12;1784884;79;21160;-44
2021/04/14 05:45:47;;;;;;;21.52;13.62;;;;;;;10.82;63.02;99314.49;1768071;79;21387;-44
2021/04/14 05:48:15;;;;;;;20.52;13.83;;;;;;;10.78;62.81;99317.72;1729661;81;21001;-43
2021/04/14 05:50:44;;;;;;;23.77;14.45;;;;;;;10.80;62.53;99320.05;1715837;82;21594;-44
2021/04/14 05:53:12;;;;;;;20.45;13.68;;;;;;;10.83;62.24;99322.05;1732122;81;21666;-44
2021/04/14 05:55:40;;;;;;;19.42;13.43;;;;;;;10.84;61.32;99315.50;1732966;82;21139;-43
2021/04/14 05:58:08;;;;;;;19.37;13.90;;;;;;;10.83;60.44;99324.77;1723248;82;21465;-44
2021/04/14 06:00:36;;;;;;;20.08;13.95;;;;;;;10.80;60.80;99324.12;1739666;81;21230;-44
2021/04/14 06:03:04;;;;;;;21.25;14.38;;;;;;;10.79;60.87;99322.58;1727248;81;21195;-44
2021/04/14 06:05:32;;;;;;;22.25;15.03;;;;;;;10.83;60.82;99324.20;1737994;81;22171;-43
2021/04/14 06:08:03;;;;;;;19.95;14.38;;;;;;;10.86;60.23;99330.81;1733539;81;21201;-43
2021/04/14 06:10:30;;;;;;;24.90;14.65;;;;;;;10.82;60.32;99323.98;1715775;82;21185;-44
2021/04/14 06:12:59;;;;;;;19.75;14.58;;;;;;;10.82;60.34;99325.34;1730783;82;21028;-44
2021/04/14 06:15:32;;;;;;;22.58;14.87;;;;;;;10.82;59.96;99322.63;1734212;82;21191;-43
2021/04/14 06:18:02;;;;;;;20.70;14.07;;;;;;;10.82;60.17;99328.05;1722769;81;21178;-44
2021/04/14 06:20:32;;;;;;;22.77;15.13;;;;;;;10.86;60.22;99330.25;1715866;83;21159;-44
2021/04/14 06:23:01;;;;;;;21.87;15.08;;;;;;;10.88;59.79;99329.33;1726564;83;21207;-44
2021/04/14 06:25:36;;;;;;;20.48;14.53;;;;;;;10.88;59.81;99326.61;1726085;81;21048;-43
2021/04/14 06:30:34;;;;;;;24.23;14.43;;;;;;;10.85;59.43;99327.89;1733420;81;21171;-44
2021/04/14 06:33:05;;;;;;;21.07;14.93;;;;;;;10.82;58.11;99327.27;1732637;81;21191;-43
2021/04/14 06:35:33;;;;;;;18.57;14.20;;;;;;;10.77;58.28;99329.70;1741110;81;22129;-44
2021/04/14 06:38:03;;;;;;;24.63;16.17;;;;;;;10.79;58.33;99321.22;1725032;81;21199;-44
2021/04/14 06:40:53;;;;;;;18.48;14.15;;;;;;;10.81;58.67;99326.48;1724269;81;21570;-43
2021/04/14 06:43:46;;;;;;;21.57;15.70;;;;;;;10.84;58.28;99329.81;1724856;82;21166;-44
2021/04/14 06:46:22;;;;;;;20.48;15.05;;;;;;;10.86;58.19;99324.03;1731821;82;21114;-44
2021/04/14 06:49:37;;;;;;;19.80;13.68;;;;;;;10.85;57.87;99318.39;1716134;81;21435;-44
2021/04/14 06:52:28;;;;;;;23.62;15.43;;;;;;;10.87;57.85;99319.62;1734693;82;21162;-44
2021/04/14 06:55:05;;;;;;;19.00;14.30;;;;;;;10.89;57.73;99324.09;1736028;82;21703;-44
2021/04/14 06:57:46;;;;;;;22.05;14.63;;;;;;;10.88;57.23;99325.26;1754043;81;21143;-44
2021/04/14 07:00:35;;;;;;;20.35;14.07;;;;;;;10.85;57.27;99321.89;1712851;82;22187;-44
2021/04/14 07:03:09;;;;;;;21.33;14.15;;;;;;;10.86;57.41;99319.97;1710482;81;22227;-44
2021/04/14 07:05:44;;;;;;;22.90;14.53;;;;;;;10.90;57.09;99320.23;1760831;81;21059;-44
2021/04/14 07:08:23;;;;;;;20.12;14.43;;;;;;;10.93;56.73;99320.67;1737517;81;21198;-44
2021/04/14 07:10:54;;;;;;;23.22;15.30;;;;;;;10.92;56.64;99323.16;1765063;79;21186;-43
2021/04/14 07:13:22;;;;;;;18.12;15.00;;;;;;;10.88;56.53;99314.41;1757931;79;21135;-44
2021/04/14 07:15:55;;;;;;;21.15;15.25;;;;;;;10.87;56.59;99312.84;1781321;79;22283;-44
2021/04/14 07:18:47;;;;;;;17.77;14.63;;;;;;;10.87;56.49;99322.90;1787157;79;21028;-43
2021/04/14 07:21:39;;;;;;;21.93;15.20;;;;;;;10.86;56.23;99318.04;1787341;79;28718;-45
2021/04/14 07:24:34;;;;;;;23.67;15.35;;;;;;;10.84;55.98;99327.09;1786573;79;21695;-45
2021/04/14 07:27:13;;;;;;;23.92;17.20;;;;;;;10.81;56.27;99316.20;1779330;80;21156;-44
2021/04/14 07:29:58;;;;;;;21.75;15.53;;;;;;;10.78;56.06;99314.22;1792349;79;21350;-44
2021/04/14 07:32:47;;;;;;;23.90;15.48;;;;;;;10.82;56.16;99324.55;1785121;79;21190;-44
2021/04/14 07:35:34;;;;;;;20.45;16.30;;;;;;;10.81;56.34;99325.13;1790623;80;21187;-44
2021/04/14 07:38:50;;;;;;;21.93;16.17;;;;;;;10.83;56.30;99335.05;1781866;80;21379;-44
2021/04/14 07:41:51;;;;;;;20.65;15.48;;;;;;;10.82;55.85;99321.27;1784013;79;21530;-44
2021/04/14 07:44:34;;;;;;;22.52;16.35;;;;;;;10.79;55.51;99317.15;1772494;80;21263;-44
2021/04/14 07:47:02;;;;;;;25.30;17.57;;;;;;;10.78;55.88;99316.94;1775222;79;21163;-45
2021/04/14 07:49:33;;;;;;;23.25;16.27;;;;;;;10.79;56.00;99315.23;1758973;80;21118;-44
2021/04/14 07:52:04;;;;;;;27.45;16.30;;;;;;;10.83;56.01;99318.78;1787216;79;21068;-44
2021/04/14 07:54:46;;;;;;;23.50;16.73;;;;;;;10.89;55.28;99322.73;1790169;80;21146;-44
2021/04/14 07:57:25;;;;;;;28.07;16.48;;;;;;;10.90;54.96;99318.09;1790301;80;21366;-44
2021/04/14 07:59:54;;;;;;;24.60;16.75;;;;;;;10.89;55.29;99325.44;1766588;80;21885;-44
2021/04/14 08:02:32;;;;;;;25.32;16.80;;;;;;;10.93;55.42;99323.38;1777479;80;21171;-44
2021/04/14 08:05:26;;;;;;;25.27;17.30;;;;;;;11.02;55.32;99337.48;1782714;80;21143;-44
2021/04/14 08:07:54;;;;;;;24.47;16.90;;;;;;;11.09;54.90;99337.58;1785875;78;21099;-44
2021/04/14 08:10:28;;;;;;;25.37;16.00;;;;;;;11.07;55.05;99335.82;1787515;79;21382;-44
2021/04/14 08:13:03;;;;;;;25.48;17.57;;;;;;;11.10;54.68;99335.88;1785761;80;21082;-44
2021/04/14 08:15:46;;;;;;;26.20;16.62;;;;;;;11.14;54.66;99337.28;1783882;80;21151;-44
2021/04/14 08:18:23;;;;;;;25.95;16.80;;;;;;;11.15;54.64;99336.14;1785578;79;21172;-44
2021/04/14 08:21:17;;;;;;;25.02;17.20;;;;;;;11.18;54.45;99342.22;1781111;80;21145;-44
2021/04/14 08:23:56;;;;;;;26.35;17.77;;;;;;;11.20;54.41;99337.98;1759185;80;21002;-44
2021/04/14 08:26:23;;;;;;;26.37;18.35;;;;;;;11.24;54.57;99333.95;1783406;80;21025;-44
2021/04/14 08:28:54;;;;;;;30.95;18.20;;;;;;;11.29;54.71;99333.08;1790080;80;21101;-44
2021/04/14 08:31:47;;;;;;;27.27;19.30;;;;;;;11.36;54.51;99335.12;1786004;79;21564;-44
2021/04/14 08:34:29;;;;;;;30.35;19.40;;;;;;;11.41;54.51;99328.59;1790739;79;21198;-44
2021/04/14 08:37:18;;;;;;;27.70;18.80;;;;;;;11.45;54.61;99323.43;1789569;79;21438;-44
2021/04/14 08:39:57;;;;;;;33.50;18.52;;;;;;;11.48;54.43;99323.26;1789454;79;21199;-44
2021/04/14 08:42:32;;;;;;;27.05;18.12;;;;;;;11.51;54.15;99320.62;1782488;79;21387;-45
2021/04/14 08:45:27;;;;;;;26.48;17.52;;;;;;;11.53;53.74;99322.37;1777752;80;21652;-44
2021/04/14 08:48:26;;;;;;;30.12;18.57;;;;;;;11.57;53.99;99312.34;1835398;77;22735;-44
2021/04/14 08:50:57;;;;;;;26.65;18.00;;;;;;;11.57;54.03;99317.77;1802887;79;21016;-44
2021/04/14 08:53:28;;;;;;;33.85;20.05;;;;;;;11.61;53.84;99309.70;1804723;78;21180;-44
2021/04/14 08:55:56;;;;;;;27.82;19.37;;;;;;;11.65;54.22;99308.59;1794358;78;21193;-44
2021/04/14 08:58:24;;;;;;;27.95;19.60;;;;;;;11.71;54.59;99311.17;1798408;79;21974;-43
2021/04/14 09:00:53;;;;;;;26.25;17.00;;;;;;;11.81;54.02;99307.67;1747394;82;21069;-44
2021/04/14 09:03:25;;;;;;;30.20;18.48;;;;;;;11.87;53.46;99307.53;1754485;80;21048;-44
2021/04/14 09:05:54;;;;;;;28.52;19.37;;;;;;;11.95;53.39;99309.98;1748434;81;22286;-44
2021/04/14 09:08:25;;;;;;;28.30;20.23;;;;;;;12.01;52.98;99304.98;1767217;81;21063;-44
2021/04/14 09:11:03;;;;;;;29.42;19.92;;;;;;;12.07;53.18;99309.73;1763473;80;22106;-44
2021/04/14 09:13:48;;;;;;;28.15;19.30;;;;;;;12.10;52.50;99310.34;1748750;80;21171;-44
2021/04/14 09:16:40;;;;;;;25.37;17.73;;;;;;;12.16;52.86;99302.64;1767218;81;21187;-43
2021/04/14 09:19:22;;;;;;;25.23;18.00;;;;;;;12.24;52.32;99300.23;1761808;81;21327;-44
2021/04/14 09:22:18;;;;;;;26.70;18.98;;;;;;;12.35;52.38;99291.59;1742171;81;22171;-44
2021/04/14 09:24:54;;;;;;;25.60;17.50;;;;;;;12.48;52.03;99290.20;1762399;80;21167;-44
2021/04/14 09:27:40;;;;;;;25.00;17.20;;;;;;;12.61;51.60;99286.05;1765509;81;21162;-44
2021/04/14 09:30:28;;;;;;;24.65;17.07;;;;;;;12.75;51.54;99281.88;1773152;80;21632;-44
2021/04/14 09:33:11;;;;;;;28.67;18.12;;;;;;;12.87;51.25;99272.09;1771376;80;21397;-44
2021/04/14 09:35:46;;;;;;;21.52;16.95;;;;;;;13.02;51.16;99276.48;1737072;81;21011;-44
2021/04/14 09:38:27;;;;;;;24.85;17.95;;;;;;;13.16;50.62;99279.92;1732435;82;21196;-43
2021/04/14 09:41:12;;;;;;;23.50;17.45;;;;;;;13.27;50.93;99269.86;1757284;81;21209;-44
2021/04/14 09:43:44;;;;;;;24.72;17.12;;;;;;;13.38;50.69;99272.08;1756488;81;21106;-44
2021/04/14 09:46:31;;;;;;;23.90;16.50;;;;;;;13.48;49.68;99268.06;1755517;81;21210;-44
2021/04/14 09:49:17;;;;;;;23.50;16.23;;;;;;;13.58;50.14;99271.23;1789888;79;21442;-44
2021/04/14 09:51:59;;;;;;;24.92;17.27;;;;;;;13.67;49.52;99262.13;1797467;79;21660;-44
2021/04/14 09:54:33;;;;;;;31.23;16.27;;;;;;;13.74;49.49;99267.62;1783654;78;21179;-44
2021/04/14 09:57:03;;;;;;;23.25;16.25;;;;;;;13.78;49.10;99272.50;1793781;79;21179;-44
2021/04/14 09:59:38;;;;;;;21.17;15.58;;;;;;;13.84;48.73;99264.16;1761325;81;21353;-44
2021/04/14 10:02:15;;;;;;;23.12;14.98;;;;;;;13.90;47.95;99264.75;1763188;81;21179;-44
2021/04/14 10:04:43;;;;;;;24.10;16.85;;;;;;;13.96;48.05;99262.44;1775264;79;21163;-44
2021/04/14 10:07:36;;;;;;;24.85;16.95;;;;;;;14.02;48.20;99258.19;1770131;81;21154;-44
2021/04/14 10:10:18;;;;;;;24.20;16.27;;;;;;;14.07;48.32;99256.45;1780472;79;21665;-44
2021/04/14 10:12:46;;;;;;;22.15;15.50;;;;;;;14.18;47.64;99252.40;1799295;79;21183;-44
2021/04/14 10:15:15;;;;;;;18.60;13.35;;;;;;;14.25;47.32;99246.37;1773952;79;21131;-44
2021/04/14 10:17:44;;;;;;;20.27;15.23;;;;;;;14.35;47.02;99249.70;1776176;79;21162;-44
2021/04/14 10:20:25;;;;;;;20.75;14.55;;;;;;;14.45;46.47;99248.77;1771906;79;21064;-44
2021/04/14 10:22:52;;;;;;;21.33;13.30;;;;;;;14.54;46.25;99239.62;1772722;79;21558;-44
2021/04/14 10:25:32;;;;;;;18.05;14.07;;;;;;;14.60;46.33;99234.77;1787224;79;21358;-44
2021/04/14 10:28:12;;;;;;;21.30;14.23;;;;;;;14.68;46.22;99226.77;1776735;79;21063;-45
2021/04/14 10:30:43;;;;;;;21.90;13.25;;;;;;;14.88;46.29;99225.00;1789924;79;21151;-44
2021/04/14 10:33:20;;;;;;;20.20;13.22;;;;;;;15.25;45.16;99227.31;1725196;82;22255;-44
2021/04/14 10:35:50;;;;;;;18.75;13.90;;;;;;;15.67;43.63;99231.31;1713442;82;21207;-44
2021/04/14 10:38:32;;;;;;;18.20;13.40;;;;;;;16.21;43.59;99216.20;1773224;79;21272;-44
2021/04/14 10:41:02;;;;;;;20.48;13.28;;;;;;;16.87;42.23;99214.75;1788616;79;21154;-44
2021/04/14 10:43:31;;;;;;;19.75;13.70;;;;;;;17.56;40.22;99219.92;1794311;79;21159;-44
2021/04/14 10:46:08;;;;;;;20.37;13.78;;;;;;;18.11;39.17;99210.61;1785180;79;21609;-44
2021/04/14 10:48:46;;;;;;;19.62;13.75;;;;;;;18.58;38.05;99201.91;1769794;79;21541;-44
2021/04/14 10:51:25;;;;;;;18.67;13.80;;;;;;;18.85;37.21;99202.63;1790469;79;21391;-44
2021/04/14 10:53:56;;;;;;;20.12;14.10;;;;;;;18.94;36.93;99195.99;1718278;82;21055;-45
2021/04/14 10:56:31;;;;;;;18.50;13.32;;;;;;;19.04;36.60;99196.41;1790977;79;21174;-45
2021/04/14 10:59:14;;;;;;;22.15;13.45;;;;;;;19.11;36.77;99194.14;1787167;79;21220;-44
2021/04/14 11:01:46;;;;;;;18.57;12.75;;;;;;;19.26;37.11;99194.05;1778082;79;21468;-44
2021/04/14 11:04:29;;;;;;;21.55;13.85;;;;;;;19.33;36.27;99191.75;1786310;79;22264;-45
2021/04/14 11:07:03;;;;;;;19.15;13.00;;;;;;;19.40;35.73;99188.88;1788690;79;21001;-45
2021/04/14 11:09:32;;;;;;;19.50;13.08;;;;;;;19.43;35.95;99189.39;1767138;79;21470;-44
2021/04/14 11:12:02;;;;;;;16.73;13.30;;;;;;;19.41;35.57;99177.44;1772153;79;21181;-45
2021/04/14 11:14:32;;;;;;;22.30;12.82;;;;;;;19.39;35.04;99168.85;1765952;79;21151;-45
2021/04/14 11:17:01;;;;;;;15.63;12.60;;;;;;;19.38;35.20;99170.05;1718346;83;21360;-45
2021/04/14 11:19:29;;;;;;;18.42;13.25;;;;;;;19.39;34.76;99170.23;1765022;81;21170;-44
2021/04/14 11:22:09;;;;;;;17.32;12.23;;;;;;;19.45;35.45;99169.17;1717957;83;21638;-45
2021/04/14 11:24:51;;;;;;;16.02;12.05;;;;;;;19.44;35.39;99162.89;1777123;79;27115;-45
2021/04/14 11:27:28;;;;;;;16.97;12.30;;;;;;;19.36;34.79;99158.71;1776909;79;21657;-44
2021/04/14 11:30:17;;;;;;;16.80;12.50;;;;;;;19.27;35.63;99152.98;1769420;79;22271;-45
2021/04/14 11:32:58;;;;;;;14.80;11.85;;;;;;;19.17;34.65;99159.45;1768749;79;21190;-45
2021/04/14 11:35:42;;;;;;;18.10;12.40;;;;;;;19.18;35.09;99148.64;1817157;78;22714;-45
2021/04/14 11:38:44;;;;;;;16.52;11.70;;;;;;;19.30;35.23;99147.25;1796874;79;21020;-45
2021/04/14 11:41:33;;;;;;;17.07;10.85;;;;;;;19.60;34.87;99160.03;1782539;79;21020;-45
2021/04/14 11:44:02;;;;;;;15.30;10.48;;;;;;;20.00;34.04;99151.09;1776035;79;21126;-45
2021/04/14 11:46:37;;;;;;;14.90;11.25;;;;;;;20.48;33.74;99144.27;1760224;79;21513;-45
2021/04/14 11:49:11;;;;;;;17.25;11.63;;;;;;;20.73;32.19;99144.42;1781356;79;21023;-45
2021/04/14 11:51:43;;;;;;;17.37;13.05;;;;;;;20.64;32.85;99136.59;1784015;79;21490;-45
2021/04/14 11:54:34;;;;;;;14.90;11.57;;;;;;;20.51;33.05;99137.13;1763608;79;21373;-45
2021/04/14 11:57:13;;;;;;;15.13;11.48;;;;;;;20.22;33.25;99140.55;1795525;79;21047;-45